createdAt,value
2018-06-08T00:00:41.532Z,100769.00
2018-06-08T00:03:51.988Z,100773.00
2018-06-08T00:07:02.877Z,100781.00
2018-06-08T00:10:14.699Z,100780.00
2018-06-08T00:13:25.469Z,100779.00
2018-06-08T00:16:36.033Z,100778.00
2018-06-08T00:19:46.295Z,100780.00
2018-06-08T00:22:56.852Z,100782.00
2018-06-08T00:26:12.196Z,100781.00
2018-06-08T00:29:22.892Z,100775.00
2018-06-08T00:32:34.155Z,100768.00
2018-06-08T00:35:44.963Z,100773.00
2018-06-08T00:38:55.652Z,100771.00
2018-06-08T00:42:06.354Z,100769.00
2018-06-08T00:45:16.807Z,100775.00
2018-06-08T00:48:27.324Z,100765.00
2018-06-08T00:51:37.660Z,100764.00
2018-06-08T00:54:47.967Z,100771.00
2018-06-08T00:57:58.840Z,100767.00
2018-06-08T01:01:09.296Z,100765.00
2018-06-08T01:04:19.607Z,100765.00
2018-06-08T01:07:30.051Z,100761.00
2018-06-08T01:10:40.713Z,100753.00
2018-06-08T01:13:51.173Z,100756.00
2018-06-08T01:17:03.287Z,100746.00
2018-06-08T01:20:13.791Z,100755.00
2018-06-08T01:23:24.728Z,100751.00
2018-06-08T01:26:35.132Z,100751.00
2018-06-08T01:29:45.595Z,100751.00
2018-06-08T01:32:56.068Z,100749.00
2018-06-08T01:36:07.856Z,100746.00
2018-06-08T01:39:18.964Z,100748.00
2018-06-08T01:42:30.302Z,100758.00
2018-06-08T01:45:40.936Z,100757.00
2018-06-08T01:48:51.619Z,100757.00
2018-06-08T01:52:02.106Z,100764.00
2018-06-08T01:55:12.590Z,100759.00
2018-06-08T01:58:22.976Z,100761.00
2018-06-08T02:01:33.903Z,100759.00
2018-06-08T02:04:44.377Z,100758.00
2018-06-08T02:07:55.273Z,100760.00
2018-06-08T02:11:05.464Z,100758.00
2018-06-08T02:14:16.168Z,100759.00
2018-06-08T02:17:26.638Z,100762.00
2018-06-08T02:20:37.447Z,100756.00
2018-06-08T02:23:48.642Z,100754.00
2018-06-08T02:26:59.296Z,100758.00
2018-06-08T02:30:09.893Z,100758.00
2018-06-08T02:33:20.406Z,100756.00
2018-06-08T02:36:32.323Z,100754.00
2018-06-08T02:39:43.632Z,100759.00
2018-06-08T02:42:55.108Z,100756.00
2018-06-08T02:46:05.503Z,100759.00
2018-06-08T02:49:15.764Z,100761.00
2018-06-08T02:52:26.251Z,100758.00
2018-06-08T02:55:37.411Z,100759.00
2018-06-08T02:58:52.338Z,100763.00
2018-06-08T03:02:03.064Z,100761.00
2018-06-08T03:05:14.681Z,100762.00
2018-06-08T03:08:25.517Z,100762.00
2018-06-08T03:11:36.011Z,100756.00
2018-06-08T03:14:46.840Z,100759.00
2018-06-08T03:17:57.333Z,100756.00
2018-06-08T03:21:07.903Z,100755.00
2018-06-08T03:24:18.652Z,100750.00
2018-06-08T03:27:29.179Z,100750.00
2018-06-08T03:30:39.584Z,100749.00
2018-06-08T03:33:50.480Z,100753.00
2018-06-08T03:37:00.740Z,100756.00
2018-06-08T03:40:11.399Z,100751.00
2018-06-08T03:43:21.859Z,100757.00
2018-06-08T03:46:32.386Z,100750.00
2018-06-08T03:49:42.923Z,100748.00
2018-06-08T03:52:53.455Z,100746.00
2018-06-08T03:56:04.391Z,100745.00
2018-06-08T03:59:14.943Z,100741.00
2018-06-08T04:02:25.719Z,100748.00
2018-06-08T04:05:38.043Z,100747.00
2018-06-08T04:08:49.143Z,100753.00
2018-06-08T04:12:00.124Z,100756.00
2018-06-08T04:15:11.000Z,100751.00
2018-06-08T04:18:21.778Z,100750.00
2018-06-08T04:21:32.563Z,100758.00
2018-06-08T04:24:43.427Z,100752.00
2018-06-08T04:27:54.284Z,100757.00
2018-06-08T04:31:05.464Z,100759.00
2018-06-08T04:34:16.783Z,100768.00
2018-06-08T04:37:28.013Z,100765.00
2018-06-08T04:40:39.627Z,100771.00
2018-06-08T04:43:50.554Z,100774.00
2018-06-08T04:47:01.170Z,100780.00
2018-06-08T04:50:13.427Z,100778.00
2018-06-08T04:53:25.208Z,100763.00
2018-06-08T04:56:35.647Z,100772.00
2018-06-08T04:59:46.056Z,100778.00
2018-06-08T05:02:56.656Z,100772.00
2018-06-08T05:06:07.148Z,100768.00
2018-06-08T05:09:17.605Z,100768.00
2018-06-08T05:12:28.028Z,100767.00
2018-06-08T05:15:40.152Z,100770.00
2018-06-08T05:18:50.617Z,100776.00
2018-06-08T05:22:01.778Z,100775.00
2018-06-08T05:25:12.632Z,100775.00
2018-06-08T05:28:23.424Z,100788.00
2018-06-08T05:31:33.688Z,100791.00
2018-06-08T05:34:44.677Z,100789.00
2018-06-08T05:37:55.636Z,100790.00
2018-06-08T05:41:05.962Z,100790.00
2018-06-08T05:44:16.389Z,100791.00
2018-06-08T05:47:28.152Z,100785.00
2018-06-08T05:50:40.626Z,100787.00
2018-06-08T05:53:51.528Z,100790.00
2018-06-08T05:57:02.100Z,100784.00
2018-06-08T06:00:12.591Z,100787.00
2018-06-08T06:03:23.270Z,100789.00
2018-06-08T06:06:33.773Z,100791.00
2018-06-08T06:09:43.952Z,100794.00
2018-06-08T06:12:54.626Z,100800.00
2018-06-08T06:16:05.454Z,100802.00
2018-06-08T06:19:19.551Z,100805.00
2018-06-08T06:22:30.239Z,100806.00
2018-06-08T06:25:42.908Z,100811.00
2018-06-08T06:28:53.958Z,100810.00
2018-06-08T06:32:04.424Z,100809.00
2018-06-08T06:35:15.096Z,100813.00
2018-06-08T06:38:25.934Z,100814.00
2018-06-08T06:41:36.698Z,100816.00
2018-06-08T06:44:47.513Z,100815.00
2018-06-08T06:47:58.681Z,100813.00
2018-06-08T06:51:09.426Z,100815.00
2018-06-08T06:54:20.315Z,100820.00
2018-06-08T06:57:30.749Z,100823.00
2018-06-08T07:00:42.651Z,100816.00
2018-06-08T07:03:53.391Z,100818.00
2018-06-08T07:07:04.405Z,100823.00
2018-06-08T07:10:14.983Z,100816.00
2018-06-08T07:13:25.724Z,100823.00
2018-06-08T07:16:36.035Z,100822.00
2018-06-08T07:19:46.580Z,100811.00
2018-06-08T07:22:57.372Z,100809.00
2018-06-08T07:26:08.019Z,100816.00
2018-06-08T07:29:18.656Z,100809.00
2018-06-08T07:32:28.992Z,100816.00
2018-06-08T07:35:39.652Z,100821.00
2018-06-08T07:38:50.625Z,100822.00
2018-06-08T07:42:01.546Z,100824.00
2018-06-08T07:45:12.008Z,100822.00
2018-06-08T07:48:26.699Z,100817.00
2018-06-08T07:51:37.521Z,100812.00
2018-06-08T07:54:48.327Z,100811.00
2018-06-08T07:57:58.913Z,100809.00
2018-06-08T08:01:10.570Z,100810.00
2018-06-08T08:04:21.431Z,100802.00
2018-06-08T08:07:32.196Z,100803.00
2018-06-08T08:10:43.239Z,100798.00
2018-06-08T08:13:54.092Z,100802.00
2018-06-08T08:17:04.717Z,100792.00
2018-06-08T08:20:15.527Z,100804.00
2018-06-08T08:23:26.418Z,100806.00
2018-06-08T08:26:37.517Z,100812.00
2018-06-08T08:29:47.744Z,100817.00
2018-06-08T08:32:58.240Z,100819.00
2018-06-08T08:36:10.229Z,100827.00
2018-06-08T08:39:20.993Z,100836.00
2018-06-08T08:42:31.720Z,100839.00
2018-06-08T08:45:43.578Z,100836.00
2018-06-08T08:48:54.659Z,100840.00
2018-06-08T08:52:05.337Z,100834.00
2018-06-08T08:55:15.843Z,100831.00
2018-06-08T08:58:28.054Z,100828.00
2018-06-08T09:01:38.808Z,100828.00
2018-06-08T09:04:49.444Z,100820.00
2018-06-08T09:08:00.244Z,100826.00
2018-06-08T09:11:11.425Z,100830.00
2018-06-08T09:14:22.993Z,100837.00
2018-06-08T09:17:33.404Z,100837.00
2018-06-08T09:20:45.796Z,100839.00
2018-06-08T09:23:57.120Z,100844.00
2018-06-08T09:27:07.785Z,100851.00
2018-06-08T09:30:20.253Z,100854.00
2018-06-08T09:33:34.944Z,100852.00
2018-06-08T09:36:45.785Z,100862.00
2018-06-08T09:39:57.425Z,100861.00
2018-06-08T09:43:09.056Z,100857.00
2018-06-08T09:46:19.775Z,100860.00
2018-06-08T09:49:31.573Z,100863.00
2018-06-08T09:52:42.767Z,100868.00
2018-06-08T09:55:53.955Z,100875.00
2018-06-08T09:59:04.469Z,100874.00
2018-06-08T10:02:16.704Z,100881.00
2018-06-08T10:05:31.759Z,100879.00
2018-06-08T10:08:42.019Z,100891.00
2018-06-08T10:11:52.460Z,100894.00
2018-06-08T10:15:02.880Z,100895.00
2018-06-08T10:18:13.544Z,100895.00
2018-06-08T10:21:23.836Z,100893.00
2018-06-08T10:24:35.164Z,100894.00
2018-06-08T10:27:45.764Z,100892.00
2018-06-08T10:30:56.659Z,100892.00
2018-06-08T10:34:07.455Z,100887.00
2018-06-08T10:37:18.180Z,100892.00
2018-06-08T10:40:29.088Z,100890.00
2018-06-08T10:43:40.515Z,100889.00
2018-06-08T10:46:52.123Z,100895.00
2018-06-08T10:50:02.696Z,100894.00
2018-06-08T10:53:14.271Z,100898.00
2018-06-08T10:56:24.879Z,100890.00
2018-06-08T10:59:35.635Z,100890.00
2018-06-08T11:02:46.656Z,100891.00
2018-06-08T11:05:59.400Z,100885.00
2018-06-08T11:09:09.798Z,100885.00
2018-06-08T11:12:20.769Z,100890.00
2018-06-08T11:15:31.686Z,100890.00
2018-06-08T11:18:42.611Z,100888.00
2018-06-08T11:21:53.951Z,100885.00
2018-06-08T11:25:05.510Z,100881.00
2018-06-08T11:28:16.259Z,100895.00
2018-06-08T11:31:27.063Z,100903.00
2018-06-08T11:34:38.240Z,100919.00
2018-06-08T11:37:49.130Z,100913.00
2018-06-08T11:40:59.557Z,100915.00
2018-06-08T11:44:10.368Z,100905.00
2018-06-08T11:47:21.133Z,100892.00
2018-06-08T11:50:31.415Z,100872.00
2018-06-08T11:53:41.856Z,100886.00
2018-06-08T11:56:52.468Z,100877.00
2018-06-08T12:00:02.775Z,100877.00
2018-06-08T12:03:13.449Z,100866.00
2018-06-08T12:06:24.863Z,100869.00
2018-06-08T12:09:35.681Z,100860.00
2018-06-08T12:12:46.540Z,100854.00
2018-06-08T12:15:56.980Z,100836.00
2018-06-08T12:19:07.422Z,100821.00
2018-06-08T12:22:18.549Z,100824.00
2018-06-08T12:25:29.692Z,100820.00
2018-06-08T12:28:40.748Z,100816.00
2018-06-08T12:31:51.632Z,100827.00
2018-06-08T12:35:02.377Z,100828.00
2018-06-08T12:38:13.382Z,100835.00
2018-06-08T12:41:24.167Z,100838.00
2018-06-08T12:44:35.491Z,100842.00
2018-06-08T12:47:47.980Z,100844.00
2018-06-08T12:50:58.466Z,100843.00
2018-06-08T12:54:09.341Z,100843.00
2018-06-08T12:57:20.399Z,100848.00
2018-06-08T13:00:31.386Z,100845.00
2018-06-08T13:03:42.096Z,100853.00
2018-06-08T13:06:53.267Z,100856.00
2018-06-08T13:10:03.873Z,100860.00
2018-06-08T13:13:14.727Z,100862.00
2018-06-08T13:16:25.207Z,100894.00
2018-06-08T13:19:36.724Z,100876.00
2018-06-08T13:22:48.007Z,100858.00
2018-06-08T13:25:59.528Z,100866.00
2018-06-08T13:29:10.055Z,100852.00
2018-06-08T13:32:21.537Z,100840.00
2018-06-08T13:35:33.255Z,100839.00
2018-06-08T13:38:44.266Z,100833.00
2018-06-08T13:41:55.805Z,100830.00
2018-06-08T13:45:06.306Z,100822.00
2018-06-08T13:48:17.282Z,100812.00
2018-06-08T13:51:27.833Z,100807.00
2018-06-08T13:54:38.395Z,100808.00
2018-06-08T13:57:48.991Z,100800.00
2018-06-08T14:01:01.441Z,100806.00
2018-06-08T14:04:13.559Z,100795.00
2018-06-08T14:07:24.228Z,100798.00
2018-06-08T14:10:35.106Z,100797.00
2018-06-08T14:13:46.530Z,100795.00
2018-06-08T14:16:57.401Z,100793.00
2018-06-08T14:20:08.361Z,100794.00
2018-06-08T14:23:19.166Z,100782.00
2018-06-08T14:26:29.697Z,100772.00
2018-06-08T14:29:40.535Z,100764.00
2018-06-08T14:32:51.563Z,100750.00
2018-06-08T14:36:02.199Z,100746.00
2018-06-08T14:39:12.601Z,100735.00
2018-06-08T14:42:23.727Z,100734.00
2018-06-08T14:45:35.008Z,100736.00
2018-06-08T14:48:46.648Z,100737.00
2018-06-08T14:51:57.449Z,100734.00
2018-06-08T14:55:08.956Z,100734.00
2018-06-08T14:58:19.896Z,100727.00
2018-06-08T15:01:30.240Z,100728.00
2018-06-08T15:04:40.901Z,100722.00
2018-06-08T15:07:51.209Z,100719.00
2018-06-08T15:11:02.532Z,100711.00
2018-06-08T15:14:13.601Z,100711.00
2018-06-08T15:17:24.216Z,100723.00
2018-06-08T15:20:35.144Z,100728.00
2018-06-08T15:23:46.092Z,100720.00
2018-06-08T15:26:56.828Z,100729.00
2018-06-08T15:30:07.360Z,100728.00
2018-06-08T15:33:18.481Z,100734.00
2018-06-08T15:36:29.566Z,100733.00
2018-06-08T15:39:41.073Z,100734.00
2018-06-08T15:42:52.121Z,100722.00
2018-06-08T15:46:02.981Z,100724.00
2018-06-08T15:49:13.788Z,100727.00
2018-06-08T15:52:24.950Z,100725.00
2018-06-08T15:55:35.185Z,100719.00
2018-06-08T15:58:45.729Z,100723.00
2018-06-08T16:01:57.634Z,100712.00
2018-06-08T16:05:07.797Z,100712.00
2018-06-08T16:08:18.103Z,100700.00
2018-06-08T16:11:33.037Z,100703.00
2018-06-08T16:14:48.579Z,100694.00
2018-06-08T16:17:59.176Z,100693.00
2018-06-08T16:21:10.335Z,100693.00
2018-06-08T16:24:21.285Z,100696.00
2018-06-08T16:27:32.240Z,100695.00
2018-06-08T16:30:42.690Z,100698.00
2018-06-08T16:33:53.420Z,100700.00
2018-06-08T16:37:05.051Z,100701.00
2018-06-08T16:40:19.689Z,100693.00
2018-06-08T16:43:30.389Z,100696.00
2018-06-08T16:46:41.019Z,100685.00
2018-06-08T16:49:51.931Z,100688.00
2018-06-08T16:53:02.714Z,100687.00
2018-06-08T16:56:13.280Z,100686.00
2018-06-08T16:59:24.275Z,100693.00
2018-06-08T17:02:34.563Z,100700.00
2018-06-08T17:05:45.461Z,100682.00
2018-06-08T17:08:56.231Z,100688.00
2018-06-08T17:12:07.187Z,100684.00
2018-06-08T17:15:18.360Z,100694.00
2018-06-08T17:18:29.145Z,100698.00
2018-06-08T17:21:39.632Z,100698.00
2018-06-08T17:24:50.417Z,100703.00
2018-06-08T17:28:01.017Z,100718.00
2018-06-08T17:31:11.761Z,100720.00
2018-06-08T17:34:22.554Z,100725.00
2018-06-08T17:37:33.234Z,100721.00
2018-06-08T17:40:45.838Z,100728.00
2018-06-08T17:43:56.816Z,100722.00
2018-06-08T17:47:07.427Z,100729.00
2018-06-08T17:50:17.757Z,100740.00
2018-06-08T17:53:28.425Z,100749.00
2018-06-08T17:56:38.880Z,100748.00
2018-06-08T17:59:49.914Z,100749.00
2018-06-08T18:03:00.904Z,100751.00
2018-06-08T18:06:11.546Z,100744.00
2018-06-08T18:09:22.390Z,100747.00
2018-06-08T18:12:33.145Z,100747.00
2018-06-08T18:15:43.902Z,100746.00
2018-06-08T18:18:54.816Z,100745.00
2018-06-08T18:22:06.663Z,100754.00
2018-06-08T18:25:17.471Z,100757.00
2018-06-08T18:28:28.208Z,100751.00
2018-06-08T18:31:40.453Z,100755.00
2018-06-08T18:34:51.260Z,100753.00
2018-06-08T18:38:01.819Z,100754.00
2018-06-08T18:41:13.595Z,100756.00
2018-06-08T18:44:24.553Z,100752.00
2018-06-08T18:47:35.090Z,100760.00
2018-06-08T18:50:45.781Z,100754.00
2018-06-08T18:53:56.204Z,100755.00
2018-06-08T18:57:06.761Z,100763.00
2018-06-08T19:00:18.569Z,100765.00
2018-06-08T19:03:29.111Z,100771.00
2018-06-08T19:06:39.747Z,100774.00
2018-06-08T19:09:50.659Z,100774.00
2018-06-08T19:13:01.856Z,100776.00
2018-06-08T19:16:13.961Z,100774.00
2018-06-08T19:19:24.783Z,100778.00
2018-06-08T19:22:36.562Z,100782.00
2018-06-08T19:25:47.589Z,100782.00
2018-06-08T19:28:58.327Z,100780.00
2018-06-08T19:32:08.868Z,100779.00
2018-06-08T19:35:19.612Z,100770.00
2018-06-08T19:38:30.588Z,100776.00
2018-06-08T19:41:41.306Z,100784.00
2018-06-08T19:44:51.983Z,100788.00
2018-06-08T19:48:02.397Z,100793.00
2018-06-08T19:51:12.813Z,100783.00
2018-06-08T19:54:23.631Z,100779.00
2018-06-08T19:57:34.531Z,100781.00
2018-06-08T20:00:45.538Z,100784.00
2018-06-08T20:03:56.436Z,100784.00
2018-06-08T20:07:06.957Z,100783.00
2018-06-08T20:10:18.140Z,100782.00
2018-06-08T20:13:28.619Z,100785.00
2018-06-08T20:16:39.600Z,100788.00
2018-06-08T20:19:54.774Z,100794.00
2018-06-08T20:23:06.081Z,100793.00
2018-06-08T20:26:18.625Z,100794.00
2018-06-08T20:29:29.655Z,100789.00
2018-06-08T20:32:40.270Z,100790.00
2018-06-08T20:35:51.471Z,100790.00
2018-06-08T20:39:02.425Z,100784.00
2018-06-08T20:42:13.085Z,100783.00
2018-06-08T20:45:23.682Z,100789.00
2018-06-08T20:48:34.044Z,100785.00
2018-06-08T20:51:45.429Z,100784.00
2018-06-08T20:54:55.805Z,100786.00
2018-06-08T20:58:17.495Z,100791.00
2018-06-08T21:01:28.022Z,100790.00
2018-06-08T21:04:38.975Z,100786.00
2018-06-08T21:07:49.316Z,100792.00
2018-06-08T21:11:00.110Z,100796.00
2018-06-08T21:14:10.913Z,100788.00
2018-06-08T21:17:21.404Z,100772.00
2018-06-08T21:20:32.295Z,100794.00
2018-06-08T21:23:43.114Z,100794.00
2018-06-08T21:26:54.200Z,100791.00
2018-06-08T21:30:05.487Z,100791.00
2018-06-08T21:33:15.933Z,100790.00
2018-06-08T21:36:26.431Z,100797.00
2018-06-08T21:39:36.863Z,100801.00
2018-06-08T21:42:48.326Z,100807.00
2018-06-08T21:45:58.903Z,100810.00
2018-06-08T21:49:09.432Z,100808.00
2018-06-08T21:52:22.447Z,100802.00
2018-06-08T21:55:33.137Z,100801.00
2018-06-08T21:58:44.169Z,100802.00
2018-06-08T22:01:54.915Z,100808.00
2018-06-08T22:05:05.623Z,100809.00
2018-06-08T22:08:16.325Z,100809.00
2018-06-08T22:11:26.796Z,100804.00
2018-06-08T22:14:37.321Z,100798.00
2018-06-08T22:17:48.174Z,100795.00
2018-06-08T22:20:58.418Z,100789.00
2018-06-08T22:24:12.084Z,100783.00
2018-06-08T22:27:24.879Z,100776.00
2018-06-08T22:30:35.443Z,100783.00
2018-06-08T22:33:48.272Z,100773.00
2018-06-08T22:37:04.547Z,100773.00
2018-06-08T22:40:17.964Z,100769.00
2018-06-08T22:43:29.436Z,100775.00
2018-06-08T22:46:40.550Z,100773.00
2018-06-08T22:49:54.223Z,100777.00
2018-06-08T22:53:05.384Z,100776.00
2018-06-08T22:56:16.827Z,100773.00
2018-06-08T22:59:29.928Z,100768.00
2018-06-08T23:02:40.761Z,100766.00
2018-06-08T23:05:52.513Z,100763.00
2018-06-08T23:09:04.717Z,100759.00
2018-06-08T23:12:15.679Z,100764.00
2018-06-08T23:15:26.858Z,100759.00
2018-06-08T23:18:38.149Z,100762.00
2018-06-08T23:21:50.284Z,100755.00
2018-06-08T23:25:02.705Z,100758.00
2018-06-08T23:28:16.686Z,100762.00
2018-06-08T23:31:30.893Z,100757.00
2018-06-08T23:34:42.783Z,100754.00
2018-06-08T23:37:54.898Z,100749.00
2018-06-08T23:41:06.927Z,100743.00
2018-06-08T23:44:17.379Z,100743.00
2018-06-08T23:47:28.571Z,100743.00
2018-06-08T23:50:42.120Z,100745.00
2018-06-08T23:53:54.671Z,100737.00
2018-06-08T23:57:05.092Z,100743.00
